sensor_id;sensor_type;location;lat;lon;timestamp;P1;durP1;ratioP1;P2;durP2;ratioP2
27686;SDS011;15093;57.206;-2.184;2022-08-03T00:05:00;3.10;;;1.40;;
27686;SDS011;15093;57.206;-2.184;2022-08-03T00:12:47;4.93;;;1.85;;
27686;SDS011;15093;57.206;-2.184;2022-08-03T00:15:22;5.57;;;1.65;;
27686;SDS011;15093;57.206;-2.184;2022-08-03T00:20:31;5.55;;;1.90;;
27686;SDS011;15093;57.206;-2.184;2022-08-03T00:23:06;4.93;;;1.80;;
27686;SDS011;15093;57.206;-2.184;2022-08-03T00:28:17;5.55;;;1.77;;
27686;SDS011;15093;57.206;-2.184;2022-08-03T00:30:54;4.40;;;1.65;;
27686;SDS011;15093;57.206;-2.184;2022-08-03T00:33:29;3.75;;;1.98;;
27686;SDS011;15093;57.206;-2.184;2022-08-03T00:36:23;4.68;;;1.80;;
27686;SDS011;15093;57.206;-2.184;2022-08-03T00:41:32;4.05;;;1.77;;
27686;SDS011;15093;57.206;-2.184;2022-08-03T00:46:44;2.83;;;1.63;;
27686;SDS011;15093;57.206;-2.184;2022-08-03T00:49:19;3.78;;;1.88;;
27686;SDS011;15093;57.206;-2.184;2022-08-03T00:51:54;6.00;;;1.70;;
27686;SDS011;15093;57.206;-2.184;2022-08-03T00:54:28;6.38;;;2.00;;
27686;SDS011;15093;57.206;-2.184;2022-08-03T00:57:03;5.93;;;1.98;;
27686;SDS011;15093;57.206;-2.184;2022-08-03T00:59:38;5.10;;;1.80;;
27686;SDS011;15093;57.206;-2.184;2022-08-03T01:02:16;3.42;;;2.13;;
27686;SDS011;15093;57.206;-2.184;2022-08-03T01:04:50;4.78;;;1.83;;
27686;SDS011;15093;57.206;-2.184;2022-08-03T01:07:27;3.22;;;2.05;;
27686;SDS011;15093;57.206;-2.184;2022-08-03T01:10:09;3.42;;;1.95;;
27686;SDS011;15093;57.206;-2.184;2022-08-03T01:12:47;5.32;;;1.85;;
27686;SDS011;15093;57.206;-2.184;2022-08-03T01:15:24;6.07;;;2.00;;
27686;SDS011;15093;57.206;-2.184;2022-08-03T01:18:06;7.57;;;2.10;;
27686;SDS011;15093;57.206;-2.184;2022-08-03T01:20:43;5.53;;;1.98;;
27686;SDS011;15093;57.206;-2.184;2022-08-03T01:26:12;3.03;;;2.10;;
27686;SDS011;15093;57.206;-2.184;2022-08-03T01:28:58;5.50;;;2.03;;
27686;SDS011;15093;57.206;-2.184;2022-08-03T01:31:39;6.30;;;2.30;;
27686;SDS011;15093;57.206;-2.184;2022-08-03T01:34:35;3.30;;;1.75;;
27686;SDS011;15093;57.206;-2.184;2022-08-03T01:37:14;3.97;;;2.03;;
27686;SDS011;15093;57.206;-2.184;2022-08-03T01:39:49;6.45;;;2.30;;
27686;SDS011;15093;57.206;-2.184;2022-08-03T01:42:26;7.13;;;2.45;;
27686;SDS011;15093;57.206;-2.184;2022-08-03T01:45:03;6.40;;;2.88;;
27686;SDS011;15093;57.206;-2.184;2022-08-03T01:47:41;4.63;;;2.60;;
27686;SDS011;15093;57.206;-2.184;2022-08-03T01:50:18;7.80;;;2.38;;
27686;SDS011;15093;57.206;-2.184;2022-08-03T01:52:54;4.30;;;1.90;;
27686;SDS011;15093;57.206;-2.184;2022-08-03T01:55:30;6.57;;;2.30;;
27686;SDS011;15093;57.206;-2.184;2022-08-03T01:58:07;3.95;;;2.10;;
27686;SDS011;15093;57.206;-2.184;2022-08-03T02:00:41;10.30;;;3.03;;
27686;SDS011;15093;57.206;-2.184;2022-08-03T02:03:19;6.72;;;2.60;;
27686;SDS011;15093;57.206;-2.184;2022-08-03T02:05:55;5.43;;;2.40;;
27686;SDS011;15093;57.206;-2.184;2022-08-03T02:08:50;6.55;;;2.60;;
27686;SDS011;15093;57.206;-2.184;2022-08-03T02:11:26;3.80;;;2.45;;
27686;SDS011;15093;57.206;-2.184;2022-08-03T02:14:01;7.07;;;2.70;;
27686;SDS011;15093;57.206;-2.184;2022-08-03T02:16:37;6.43;;;2.08;;
27686;SDS011;15093;57.206;-2.184;2022-08-03T02:21:49;4.77;;;2.37;;
27686;SDS011;15093;57.206;-2.184;2022-08-03T02:24:27;6.35;;;2.40;;
27686;SDS011;15093;57.206;-2.184;2022-08-03T02:27:02;7.00;;;2.22;;
27686;SDS011;15093;57.206;-2.184;2022-08-03T02:29:38;6.90;;;2.47;;
27686;SDS011;15093;57.206;-2.184;2022-08-03T02:32:15;3.33;;;2.47;;
27686;SDS011;15093;57.206;-2.184;2022-08-03T02:34:52;5.72;;;2.72;;
27686;SDS011;15093;57.206;-2.184;2022-08-03T02:37:31;5.88;;;2.08;;
27686;SDS011;15093;57.206;-2.184;2022-08-03T02:40:15;7.00;;;2.45;;
27686;SDS011;15093;57.206;-2.184;2022-08-03T02:42:52;5.03;;;1.90;;
27686;SDS011;15093;57.206;-2.184;2022-08-03T02:45:28;5.10;;;2.20;;
27686;SDS011;15093;57.206;-2.184;2022-08-03T02:48:05;6.80;;;1.98;;
27686;SDS011;15093;57.206;-2.184;2022-08-03T02:50:40;5.60;;;1.90;;
27686;SDS011;15093;57.206;-2.184;2022-08-03T02:53:18;6.70;;;2.28;;
27686;SDS011;15093;57.206;-2.184;2022-08-03T02:55:53;5.53;;;2.10;;
27686;SDS011;15093;57.206;-2.184;2022-08-03T02:58:28;6.22;;;1.98;;
27686;SDS011;15093;57.206;-2.184;2022-08-03T03:01:04;5.70;;;1.80;;
27686;SDS011;15093;57.206;-2.184;2022-08-03T03:03:40;5.45;;;1.70;;
27686;SDS011;15093;57.206;-2.184;2022-08-03T03:06:18;4.90;;;1.98;;
27686;SDS011;15093;57.206;-2.184;2022-08-03T03:08:58;4.05;;;2.25;;
27686;SDS011;15093;57.206;-2.184;2022-08-03T03:11:32;5.18;;;2.58;;
27686;SDS011;15093;57.206;-2.184;2022-08-03T03:14:09;4.63;;;2.20;;
27686;SDS011;15093;57.206;-2.184;2022-08-03T03:16:44;3.90;;;1.83;;
27686;SDS011;15093;57.206;-2.184;2022-08-03T03:19:28;5.60;;;2.00;;
27686;SDS011;15093;57.206;-2.184;2022-08-03T03:22:04;3.45;;;1.60;;
27686;SDS011;15093;57.206;-2.184;2022-08-03T03:24:41;5.32;;;2.05;;
27686;SDS011;15093;57.206;-2.184;2022-08-03T03:27:17;2.63;;;1.90;;
27686;SDS011;15093;57.206;-2.184;2022-08-03T03:29:53;4.10;;;1.88;;
27686;SDS011;15093;57.206;-2.184;2022-08-03T03:32:28;1.38;;;1.27;;
27686;SDS011;15093;57.206;-2.184;2022-08-03T03:35:05;4.07;;;1.75;;
27686;SDS011;15093;57.206;-2.184;2022-08-03T03:37:40;4.55;;;1.52;;
27686;SDS011;15093;57.206;-2.184;2022-08-03T03:42:52;2.13;;;1.20;;
27686;SDS011;15093;57.206;-2.184;2022-08-03T03:45:29;1.52;;;1.00;;
27686;SDS011;15093;57.206;-2.184;2022-08-03T03:48:05;1.95;;;0.95;;
27686;SDS011;15093;57.206;-2.184;2022-08-03T03:50:40;1.58;;;0.70;;
27686;SDS011;15093;57.206;-2.184;2022-08-03T03:53:16;1.90;;;0.77;;
27686;SDS011;15093;57.206;-2.184;2022-08-03T03:58:35;2.45;;;0.60;;
27686;SDS011;15093;57.206;-2.184;2022-08-03T04:01:10;2.08;;;0.75;;
27686;SDS011;15093;57.206;-2.184;2022-08-03T04:03:46;1.25;;;1.00;;
27686;SDS011;15093;57.206;-2.184;2022-08-03T04:09:07;0.60;;;0.60;;
27686;SDS011;15093;57.206;-2.184;2022-08-03T04:11:57;1.17;;;0.70;;
27686;SDS011;15093;57.206;-2.184;2022-08-03T04:14:36;1.38;;;0.60;;
27686;SDS011;15093;57.206;-2.184;2022-08-03T04:17:11;0.65;;;0.60;;
27686;SDS011;15093;57.206;-2.184;2022-08-03T04:19:48;0.47;;;0.47;;
27686;SDS011;15093;57.206;-2.184;2022-08-03T04:22:25;0.70;;;0.65;;
27686;SDS011;15093;57.206;-2.184;2022-08-03T04:25:02;0.38;;;0.38;;
27686;SDS011;15093;57.206;-2.184;2022-08-03T04:27:37;0.80;;;0.60;;
27686;SDS011;15093;57.206;-2.184;2022-08-03T04:30:16;0.77;;;0.50;;
27686;SDS011;15093;57.206;-2.184;2022-08-03T04:32:51;0.40;;;0.40;;
27686;SDS011;15093;57.206;-2.184;2022-08-03T04:35:26;0.55;;;0.55;;
27686;SDS011;15093;57.206;-2.184;2022-08-03T04:38:22;1.35;;;0.60;;
27686;SDS011;15093;57.206;-2.184;2022-08-03T04:40:58;1.10;;;0.52;;
27686;SDS011;15093;57.206;-2.184;2022-08-03T04:43:37;1.17;;;0.70;;
27686;SDS011;15093;57.206;-2.184;2022-08-03T04:46:15;0.70;;;0.68;;
27686;SDS011;15093;57.206;-2.184;2022-08-03T04:48:50;2.70;;;0.90;;
27686;SDS011;15093;57.206;-2.184;2022-08-03T04:51:25;0.60;;;0.55;;
27686;SDS011;15093;57.206;-2.184;2022-08-03T04:54:00;1.70;;;0.90;;
27686;SDS011;15093;57.206;-2.184;2022-08-03T04:56:38;3.03;;;1.05;;
27686;SDS011;15093;57.206;-2.184;2022-08-03T04:59:13;2.20;;;1.30;;
27686;SDS011;15093;57.206;-2.184;2022-08-03T05:01:50;1.42;;;0.88;;
27686;SDS011;15093;57.206;-2.184;2022-08-03T05:04:27;1.60;;;0.95;;
27686;SDS011;15093;57.206;-2.184;2022-08-03T05:09:42;1.67;;;0.95;;
27686;SDS011;15093;57.206;-2.184;2022-08-03T05:12:23;1.10;;;0.98;;
27686;SDS011;15093;57.206;-2.184;2022-08-03T05:15:03;2.85;;;0.82;;
27686;SDS011;15093;57.206;-2.184;2022-08-03T05:17:41;2.22;;;0.95;;
27686;SDS011;15093;57.206;-2.184;2022-08-03T05:20:16;0.98;;;0.68;;
27686;SDS011;15093;57.206;-2.184;2022-08-03T05:25:25;1.15;;;0.77;;
27686;SDS011;15093;57.206;-2.184;2022-08-03T05:28:00;1.40;;;0.68;;
27686;SDS011;15093;57.206;-2.184;2022-08-03T05:30:35;2.08;;;0.90;;
27686;SDS011;15093;57.206;-2.184;2022-08-03T05:33:13;1.10;;;0.80;;
27686;SDS011;15093;57.206;-2.184;2022-08-03T05:35:47;1.10;;;0.80;;
27686;SDS011;15093;57.206;-2.184;2022-08-03T05:38:34;1.55;;;0.70;;
27686;SDS011;15093;57.206;-2.184;2022-08-03T05:41:09;0.98;;;0.77;;
27686;SDS011;15093;57.206;-2.184;2022-08-03T05:43:54;2.38;;;0.63;;
27686;SDS011;15093;57.206;-2.184;2022-08-03T05:46:28;2.92;;;0.75;;
27686;SDS011;15093;57.206;-2.184;2022-08-03T05:49:08;1.17;;;0.80;;
27686;SDS011;15093;57.206;-2.184;2022-08-03T05:51:43;0.70;;;0.60;;
27686;SDS011;15093;57.206;-2.184;2022-08-03T05:54:30;1.02;;;0.80;;
27686;SDS011;15093;57.206;-2.184;2022-08-03T05:57:24;0.77;;;0.70;;
27686;SDS011;15093;57.206;-2.184;2022-08-03T06:00:00;1.45;;;0.82;;
27686;SDS011;15093;57.206;-2.184;2022-08-03T06:02:37;0.65;;;0.65;;
27686;SDS011;15093;57.206;-2.184;2022-08-03T06:05:15;1.05;;;0.70;;
27686;SDS011;15093;57.206;-2.184;2022-08-03T06:07:50;1.35;;;0.82;;
27686;SDS011;15093;57.206;-2.184;2022-08-03T06:10:24;0.85;;;0.52;;
27686;SDS011;15093;57.206;-2.184;2022-08-03T06:13:08;2.45;;;0.80;;
27686;SDS011;15093;57.206;-2.184;2022-08-03T06:15:43;1.80;;;0.75;;
27686;SDS011;15093;57.206;-2.184;2022-08-03T06:18:17;1.63;;;0.55;;
27686;SDS011;15093;57.206;-2.184;2022-08-03T06:20:55;0.80;;;0.70;;
27686;SDS011;15093;57.206;-2.184;2022-08-03T06:23:45;0.85;;;0.43;;
27686;SDS011;15093;57.206;-2.184;2022-08-03T06:26:24;0.73;;;0.50;;
27686;SDS011;15093;57.206;-2.184;2022-08-03T06:29:00;0.77;;;0.50;;
27686;SDS011;15093;57.206;-2.184;2022-08-03T06:31:34;2.47;;;0.65;;
27686;SDS011;15093;57.206;-2.184;2022-08-03T06:34:11;1.65;;;0.60;;
27686;SDS011;15093;57.206;-2.184;2022-08-03T06:37:07;0.85;;;0.60;;
27686;SDS011;15093;57.206;-2.184;2022-08-03T06:39:42;1.30;;;0.65;;
27686;SDS011;15093;57.206;-2.184;2022-08-03T06:42:17;0.90;;;0.75;;
27686;SDS011;15093;57.206;-2.184;2022-08-03T06:44:53;1.02;;;0.57;;
27686;SDS011;15093;57.206;-2.184;2022-08-03T06:47:28;1.27;;;0.73;;
27686;SDS011;15093;57.206;-2.184;2022-08-03T06:50:03;1.88;;;0.60;;
27686;SDS011;15093;57.206;-2.184;2022-08-03T06:52:50;1.27;;;0.57;;
27686;SDS011;15093;57.206;-2.184;2022-08-03T06:55:25;1.45;;;0.60;;
27686;SDS011;15093;57.206;-2.184;2022-08-03T06:57:59;1.35;;;0.50;;
27686;SDS011;15093;57.206;-2.184;2022-08-03T07:00:34;0.73;;;0.60;;
27686;SDS011;15093;57.206;-2.184;2022-08-03T07:03:09;0.65;;;0.52;;
27686;SDS011;15093;57.206;-2.184;2022-08-03T07:05:43;3.88;;;0.80;;
27686;SDS011;15093;57.206;-2.184;2022-08-03T07:08:22;1.50;;;0.80;;
27686;SDS011;15093;57.206;-2.184;2022-08-03T07:11:04;1.58;;;0.80;;
27686;SDS011;15093;57.206;-2.184;2022-08-03T07:13:39;0.82;;;0.50;;
27686;SDS011;15093;57.206;-2.184;2022-08-03T07:16:14;2.25;;;0.75;;
27686;SDS011;15093;57.206;-2.184;2022-08-03T07:18:49;2.40;;;0.70;;
27686;SDS011;15093;57.206;-2.184;2022-08-03T07:21:23;1.17;;;0.60;;
27686;SDS011;15093;57.206;-2.184;2022-08-03T07:24:01;1.65;;;0.82;;
27686;SDS011;15093;57.206;-2.184;2022-08-03T07:26:36;2.30;;;0.82;;
27686;SDS011;15093;57.206;-2.184;2022-08-03T07:29:10;0.55;;;0.40;;
27686;SDS011;15093;57.206;-2.184;2022-08-03T07:31:45;1.17;;;0.68;;
27686;SDS011;15093;57.206;-2.184;2022-08-03T07:34:20;1.02;;;0.82;;
27686;SDS011;15093;57.206;-2.184;2022-08-03T07:36:55;0.77;;;0.60;;
27686;SDS011;15093;57.206;-2.184;2022-08-03T07:39:35;0.63;;;0.60;;
27686;SDS011;15093;57.206;-2.184;2022-08-03T07:42:09;3.05;;;0.77;;
27686;SDS011;15093;57.206;-2.184;2022-08-03T07:44:45;2.40;;;0.68;;
27686;SDS011;15093;57.206;-2.184;2022-08-03T07:47:19;0.82;;;0.75;;
27686;SDS011;15093;57.206;-2.184;2022-08-03T07:50:06;1.15;;;0.60;;
27686;SDS011;15093;57.206;-2.184;2022-08-03T07:52:41;2.40;;;0.70;;
27686;SDS011;15093;57.206;-2.184;2022-08-03T07:55:24;1.70;;;0.60;;
27686;SDS011;15093;57.206;-2.184;2022-08-03T07:58:01;2.33;;;0.60;;
27686;SDS011;15093;57.206;-2.184;2022-08-03T08:00:36;0.80;;;0.50;;
27686;SDS011;15093;57.206;-2.184;2022-08-03T08:03:11;0.70;;;0.60;;
27686;SDS011;15093;57.206;-2.184;2022-08-03T08:05:46;3.00;;;0.70;;
27686;SDS011;15093;57.206;-2.184;2022-08-03T08:08:21;2.30;;;0.88;;
27686;SDS011;15093;57.206;-2.184;2022-08-03T08:10:58;2.70;;;0.82;;
27686;SDS011;15093;57.206;-2.184;2022-08-03T08:13:33;3.17;;;0.60;;
27686;SDS011;15093;57.206;-2.184;2022-08-03T08:16:08;1.92;;;0.70;;
27686;SDS011;15093;57.206;-2.184;2022-08-03T08:18:42;2.75;;;0.77;;
27686;SDS011;15093;57.206;-2.184;2022-08-03T08:21:17;3.65;;;0.90;;
27686;SDS011;15093;57.206;-2.184;2022-08-03T08:23:52;1.13;;;0.75;;
27686;SDS011;15093;57.206;-2.184;2022-08-03T08:26:31;1.85;;;0.50;;
27686;SDS011;15093;57.206;-2.184;2022-08-03T08:29:05;1.95;;;0.80;;
27686;SDS011;15093;57.206;-2.184;2022-08-03T08:31:40;2.63;;;0.60;;
27686;SDS011;15093;57.206;-2.184;2022-08-03T08:34:15;1.48;;;0.63;;
27686;SDS011;15093;57.206;-2.184;2022-08-03T08:39:24;1.73;;;0.63;;
27686;SDS011;15093;57.206;-2.184;2022-08-03T08:42:02;1.85;;;0.55;;
27686;SDS011;15093;57.206;-2.184;2022-08-03T08:44:37;1.55;;;0.55;;
27686;SDS011;15093;57.206;-2.184;2022-08-03T08:47:11;3.63;;;0.70;;
27686;SDS011;15093;57.206;-2.184;2022-08-03T08:49:47;2.20;;;0.50;;
27686;SDS011;15093;57.206;-2.184;2022-08-03T08:52:40;2.05;;;0.80;;
27686;SDS011;15093;57.206;-2.184;2022-08-03T08:55:18;2.17;;;0.80;;
27686;SDS011;15093;57.206;-2.184;2022-08-03T08:57:58;1.38;;;0.75;;
27686;SDS011;15093;57.206;-2.184;2022-08-03T09:00:35;2.05;;;0.63;;
27686;SDS011;15093;57.206;-2.184;2022-08-03T09:03:10;1.90;;;0.80;;
27686;SDS011;15093;57.206;-2.184;2022-08-03T09:06:01;3.85;;;0.80;;
27686;SDS011;15093;57.206;-2.184;2022-08-03T09:08:36;2.08;;;0.75;;
27686;SDS011;15093;57.206;-2.184;2022-08-03T09:11:11;4.13;;;0.85;;
27686;SDS011;15093;57.206;-2.184;2022-08-03T09:13:48;0.85;;;0.70;;
27686;SDS011;15093;57.206;-2.184;2022-08-03T09:16:23;2.10;;;0.50;;
27686;SDS011;15093;57.206;-2.184;2022-08-03T09:21:32;1.10;;;0.50;;
27686;SDS011;15093;57.206;-2.184;2022-08-03T09:24:10;2.55;;;0.63;;
27686;SDS011;15093;57.206;-2.184;2022-08-03T09:27:06;2.45;;;0.77;;
27686;SDS011;15093;57.206;-2.184;2022-08-03T09:29:49;2.35;;;0.50;;
27686;SDS011;15093;57.206;-2.184;2022-08-03T09:32:24;2.45;;;0.70;;
27686;SDS011;15093;57.206;-2.184;2022-08-03T09:35:02;1.85;;;0.60;;
27686;SDS011;15093;57.206;-2.184;2022-08-03T09:37:42;2.17;;;0.73;;
27686;SDS011;15093;57.206;-2.184;2022-08-03T09:40:37;1.85;;;0.80;;
27686;SDS011;15093;57.206;-2.184;2022-08-03T09:43:12;1.35;;;0.60;;
27686;SDS011;15093;57.206;-2.184;2022-08-03T09:45:49;1.42;;;0.50;;
27686;SDS011;15093;57.206;-2.184;2022-08-03T09:48:24;1.20;;;0.40;;
27686;SDS011;15093;57.206;-2.184;2022-08-03T09:51:00;3.72;;;0.80;;
27686;SDS011;15093;57.206;-2.184;2022-08-03T09:53:55;1.33;;;0.40;;
27686;SDS011;15093;57.206;-2.184;2022-08-03T09:56:42;1.63;;;0.60;;
27686;SDS011;15093;57.206;-2.184;2022-08-03T09:59:22;0.68;;;0.38;;
27686;SDS011;15093;57.206;-2.184;2022-08-03T10:02:00;0.52;;;0.30;;
27686;SDS011;15093;57.206;-2.184;2022-08-03T10:04:35;0.68;;;0.40;;
27686;SDS011;15093;57.206;-2.184;2022-08-03T10:07:22;3.45;;;0.38;;
27686;SDS011;15093;57.206;-2.184;2022-08-03T10:09:57;1.25;;;0.63;;
27686;SDS011;15093;57.206;-2.184;2022-08-03T10:12:52;1.13;;;0.40;;
27686;SDS011;15093;57.206;-2.184;2022-08-03T10:15:27;3.25;;;0.70;;
27686;SDS011;15093;57.206;-2.184;2022-08-03T10:18:25;1.17;;;0.57;;
27686;SDS011;15093;57.206;-2.184;2022-08-03T10:21:02;0.65;;;0.40;;
27686;SDS011;15093;57.206;-2.184;2022-08-03T10:23:37;1.50;;;0.68;;
27686;SDS011;15093;57.206;-2.184;2022-08-03T10:26:12;1.00;;;0.30;;
27686;SDS011;15093;57.206;-2.184;2022-08-03T10:28:49;1.55;;;0.20;;
27686;SDS011;15093;57.206;-2.184;2022-08-03T10:31:27;0.55;;;0.20;;
27686;SDS011;15093;57.206;-2.184;2022-08-03T10:34:10;1.38;;;0.60;;
27686;SDS011;15093;57.206;-2.184;2022-08-03T10:36:46;0.38;;;0.30;;
27686;SDS011;15093;57.206;-2.184;2022-08-03T10:39:21;1.58;;;0.45;;
27686;SDS011;15093;57.206;-2.184;2022-08-03T10:41:57;1.88;;;0.60;;
27686;SDS011;15093;57.206;-2.184;2022-08-03T10:44:36;0.47;;;0.45;;
27686;SDS011;15093;57.206;-2.184;2022-08-03T10:47:12;0.60;;;0.43;;
27686;SDS011;15093;57.206;-2.184;2022-08-03T10:49:50;1.00;;;0.50;;
27686;SDS011;15093;57.206;-2.184;2022-08-03T10:52:25;1.83;;;0.40;;
27686;SDS011;15093;57.206;-2.184;2022-08-03T10:58:11;0.40;;;0.30;;
27686;SDS011;15093;57.206;-2.184;2022-08-03T11:01:01;0.50;;;0.50;;
27686;SDS011;15093;57.206;-2.184;2022-08-03T11:04:12;1.95;;;0.88;;
27686;SDS011;15093;57.206;-2.184;2022-08-03T11:06:46;0.40;;;0.35;;
27686;SDS011;15093;57.206;-2.184;2022-08-03T11:09:21;0.55;;;0.30;;
27686;SDS011;15093;57.206;-2.184;2022-08-03T11:11:56;0.68;;;0.40;;
27686;SDS011;15093;57.206;-2.184;2022-08-03T11:14:31;0.45;;;0.35;;
27686;SDS011;15093;57.206;-2.184;2022-08-03T11:17:18;0.20;;;0.10;;
27686;SDS011;15093;57.206;-2.184;2022-08-03T11:19:53;0.25;;;0.22;;
27686;SDS011;15093;57.206;-2.184;2022-08-03T11:25:21;1.00;;;0.30;;
27686;SDS011;15093;57.206;-2.184;2022-08-03T11:28:25;0.60;;;0.50;;
27686;SDS011;15093;57.206;-2.184;2022-08-03T11:34:11;0.68;;;0.50;;
27686;SDS011;15093;57.206;-2.184;2022-08-03T11:39:39;1.02;;;0.30;;
27686;SDS011;15093;57.206;-2.184;2022-08-03T11:45:08;0.90;;;0.40;;
27686;SDS011;15093;57.206;-2.184;2022-08-03T11:47:43;0.30;;;0.20;;
27686;SDS011;15093;57.206;-2.184;2022-08-03T11:50:21;2.72;;;0.40;;
27686;SDS011;15093;57.206;-2.184;2022-08-03T11:52:56;0.57;;;0.30;;
27686;SDS011;15093;57.206;-2.184;2022-08-03T11:55:31;2.92;;;0.30;;
27686;SDS011;15093;57.206;-2.184;2022-08-03T11:58:06;0.35;;;0.35;;
27686;SDS011;15093;57.206;-2.184;2022-08-03T12:01:06;0.28;;;0.28;;
27686;SDS011;15093;57.206;-2.184;2022-08-03T12:03:43;0.30;;;0.30;;
27686;SDS011;15093;57.206;-2.184;2022-08-03T12:06:18;0.20;;;0.20;;
27686;SDS011;15093;57.206;-2.184;2022-08-03T12:08:54;1.38;;;0.30;;
27686;SDS011;15093;57.206;-2.184;2022-08-03T12:11:29;0.17;;;0.17;;
27686;SDS011;15093;57.206;-2.184;2022-08-03T12:14:04;0.60;;;0.30;;
27686;SDS011;15093;57.206;-2.184;2022-08-03T12:17:03;0.77;;;0.22;;
27686;SDS011;15093;57.206;-2.184;2022-08-03T12:19:41;0.47;;;0.40;;
27686;SDS011;15093;57.206;-2.184;2022-08-03T12:22:17;1.45;;;0.30;;
27686;SDS011;15093;57.206;-2.184;2022-08-03T12:25:08;0.28;;;0.28;;
27686;SDS011;15093;57.206;-2.184;2022-08-03T12:27:43;0.63;;;0.20;;
27686;SDS011;15093;57.206;-2.184;2022-08-03T12:30:18;0.10;;;0.10;;
27686;SDS011;15093;57.206;-2.184;2022-08-03T12:32:56;0.30;;;0.20;;
27686;SDS011;15093;57.206;-2.184;2022-08-03T12:35:31;0.10;;;0.10;;
27686;SDS011;15093;57.206;-2.184;2022-08-03T12:38:05;0.52;;;0.30;;
27686;SDS011;15093;57.206;-2.184;2022-08-03T12:40:40;0.20;;;0.20;;
27686;SDS011;15093;57.206;-2.184;2022-08-03T12:43:15;0.30;;;0.22;;
27686;SDS011;15093;57.206;-2.184;2022-08-03T12:45:50;0.20;;;0.20;;
27686;SDS011;15093;57.206;-2.184;2022-08-03T12:48:27;0.30;;;0.30;;
27686;SDS011;15093;57.206;-2.184;2022-08-03T12:51:08;0.05;;;0.05;;
27686;SDS011;15093;57.206;-2.184;2022-08-03T12:53:50;0.13;;;0.13;;
27686;SDS011;15093;57.206;-2.184;2022-08-03T12:56:25;0.10;;;0.10;;
27686;SDS011;15093;57.206;-2.184;2022-08-03T12:59:00;0.10;;;0.10;;
27686;SDS011;15093;57.206;-2.184;2022-08-03T13:01:36;0.20;;;0.20;;
27686;SDS011;15093;57.206;-2.184;2022-08-03T13:04:29;0.08;;;0.03;;
27686;SDS011;15093;57.206;-2.184;2022-08-03T13:07:05;0.22;;;0.10;;
27686;SDS011;15093;57.206;-2.184;2022-08-03T13:09:49;1.05;;;0.30;;
27686;SDS011;15093;57.206;-2.184;2022-08-03T13:12:25;0.10;;;0.10;;
27686;SDS011;15093;57.206;-2.184;2022-08-03T13:15:00;0.20;;;0.20;;
27686;SDS011;15093;57.206;-2.184;2022-08-03T13:17:35;1.25;;;0.10;;
27686;SDS011;15093;57.206;-2.184;2022-08-03T13:20:12;0.10;;;0.10;;
27686;SDS011;15093;57.206;-2.184;2022-08-03T13:22:47;0.10;;;0.10;;
27686;SDS011;15093;57.206;-2.184;2022-08-03T13:25:22;0.10;;;0.10;;
27686;SDS011;15093;57.206;-2.184;2022-08-03T13:27:56;0.50;;;0.17;;
27686;SDS011;15093;57.206;-2.184;2022-08-03T13:30:37;0.30;;;0.30;;
27686;SDS011;15093;57.206;-2.184;2022-08-03T13:33:11;0.10;;;0.10;;
27686;SDS011;15093;57.206;-2.184;2022-08-03T13:35:49;0.20;;;0.20;;
27686;SDS011;15093;57.206;-2.184;2022-08-03T13:38:24;0.47;;;0.15;;
27686;SDS011;15093;57.206;-2.184;2022-08-03T13:40:59;0.35;;;0.22;;
27686;SDS011;15093;57.206;-2.184;2022-08-03T13:43:41;0.10;;;0.10;;
27686;SDS011;15093;57.206;-2.184;2022-08-03T13:46:16;0.30;;;0.20;;
27686;SDS011;15093;57.206;-2.184;2022-08-03T13:48:51;0.20;;;0.20;;
27686;SDS011;15093;57.206;-2.184;2022-08-03T13:51:28;0.20;;;0.10;;
27686;SDS011;15093;57.206;-2.184;2022-08-03T13:54:03;0.10;;;0.10;;
27686;SDS011;15093;57.206;-2.184;2022-08-03T13:56:38;1.17;;;0.17;;
27686;SDS011;15093;57.206;-2.184;2022-08-03T13:59:14;0.25;;;0.20;;
27686;SDS011;15093;57.206;-2.184;2022-08-03T14:01:50;0.20;;;0.20;;
27686;SDS011;15093;57.206;-2.184;2022-08-03T14:04:26;0.15;;;0.15;;
27686;SDS011;15093;57.206;-2.184;2022-08-03T14:07:03;0.20;;;0.20;;
27686;SDS011;15093;57.206;-2.184;2022-08-03T14:09:38;0.20;;;0.20;;
27686;SDS011;15093;57.206;-2.184;2022-08-03T14:12:13;0.20;;;0.20;;
27686;SDS011;15093;57.206;-2.184;2022-08-03T14:14:48;0.30;;;0.28;;
27686;SDS011;15093;57.206;-2.184;2022-08-03T14:17:23;0.05;;;0.05;;
27686;SDS011;15093;57.206;-2.184;2022-08-03T14:20:12;0.17;;;0.17;;
27686;SDS011;15093;57.206;-2.184;2022-08-03T14:23:09;0.30;;;0.30;;
27686;SDS011;15093;57.206;-2.184;2022-08-03T14:25:44;0.13;;;0.13;;
27686;SDS011;15093;57.206;-2.184;2022-08-03T14:28:23;0.20;;;0.20;;
27686;SDS011;15093;57.206;-2.184;2022-08-03T14:30:59;0.20;;;0.20;;
27686;SDS011;15093;57.206;-2.184;2022-08-03T14:33:38;0.25;;;0.25;;
27686;SDS011;15093;57.206;-2.184;2022-08-03T14:36:13;0.30;;;0.28;;
27686;SDS011;15093;57.206;-2.184;2022-08-03T14:38:53;1.98;;;0.35;;
27686;SDS011;15093;57.206;-2.184;2022-08-03T14:41:31;1.83;;;0.20;;
27686;SDS011;15093;57.206;-2.184;2022-08-03T14:46:41;1.13;;;0.22;;
27686;SDS011;15093;57.206;-2.184;2022-08-03T14:49:15;0.22;;;0.22;;
27686;SDS011;15093;57.206;-2.184;2022-08-03T14:52:10;0.20;;;0.20;;
27686;SDS011;15093;57.206;-2.184;2022-08-03T14:57:22;0.38;;;0.10;;
27686;SDS011;15093;57.206;-2.184;2022-08-03T14:59:56;0.55;;;0.20;;
27686;SDS011;15093;57.206;-2.184;2022-08-03T15:05:06;0.98;;;0.20;;
27686;SDS011;15093;57.206;-2.184;2022-08-03T15:07:43;1.85;;;0.22;;
27686;SDS011;15093;57.206;-2.184;2022-08-03T15:10:18;1.02;;;0.30;;
27686;SDS011;15093;57.206;-2.184;2022-08-03T15:13:03;2.85;;;0.60;;
27686;SDS011;15093;57.206;-2.184;2022-08-03T15:15:38;0.50;;;0.50;;
27686;SDS011;15093;57.206;-2.184;2022-08-03T15:18:13;1.73;;;0.40;;
27686;SDS011;15093;57.206;-2.184;2022-08-03T15:20:48;0.75;;;0.40;;
27686;SDS011;15093;57.206;-2.184;2022-08-03T15:23:22;2.72;;;0.43;;
27686;SDS011;15093;57.206;-2.184;2022-08-03T15:28:54;0.80;;;0.20;;
27686;SDS011;15093;57.206;-2.184;2022-08-03T15:31:29;1.48;;;0.30;;
27686;SDS011;15093;57.206;-2.184;2022-08-03T15:36:38;1.23;;;0.68;;
27686;SDS011;15093;57.206;-2.184;2022-08-03T15:41:47;0.95;;;0.52;;
27686;SDS011;15093;57.206;-2.184;2022-08-03T15:46:59;0.60;;;0.38;;
27686;SDS011;15093;57.206;-2.184;2022-08-03T15:49:34;0.88;;;0.40;;
27686;SDS011;15093;57.206;-2.184;2022-08-03T15:52:08;0.75;;;0.40;;
27686;SDS011;15093;57.206;-2.184;2022-08-03T15:57:17;1.10;;;0.50;;
27686;SDS011;15093;57.206;-2.184;2022-08-03T15:59:53;3.75;;;0.82;;
27686;SDS011;15093;57.206;-2.184;2022-08-03T16:05:06;4.63;;;0.60;;
27686;SDS011;15093;57.206;-2.184;2022-08-03T16:07:41;4.38;;;0.70;;
27686;SDS011;15093;57.206;-2.184;2022-08-03T16:10:35;3.13;;;0.88;;
27686;SDS011;15093;57.206;-2.184;2022-08-03T16:13:10;0.98;;;0.40;;
27686;SDS011;15093;57.206;-2.184;2022-08-03T16:15:45;1.10;;;0.50;;
27686;SDS011;15093;57.206;-2.184;2022-08-03T16:18:21;1.77;;;0.63;;
27686;SDS011;15093;57.206;-2.184;2022-08-03T16:20:58;1.85;;;0.70;;
27686;SDS011;15093;57.206;-2.184;2022-08-03T16:23:33;0.50;;;0.43;;
27686;SDS011;15093;57.206;-2.184;2022-08-03T16:26:13;0.60;;;0.43;;
27686;SDS011;15093;57.206;-2.184;2022-08-03T16:28:48;1.10;;;0.50;;
27686;SDS011;15093;57.206;-2.184;2022-08-03T16:33:59;2.78;;;0.80;;
27686;SDS011;15093;57.206;-2.184;2022-08-03T16:39:11;1.02;;;0.50;;
27686;SDS011;15093;57.206;-2.184;2022-08-03T16:41:46;1.40;;;0.60;;
27686;SDS011;15093;57.206;-2.184;2022-08-03T16:47:07;1.38;;;0.43;;
27686;SDS011;15093;57.206;-2.184;2022-08-03T16:49:53;1.48;;;0.35;;
27686;SDS011;15093;57.206;-2.184;2022-08-03T16:52:30;2.67;;;0.50;;
27686;SDS011;15093;57.206;-2.184;2022-08-03T16:55:10;2.67;;;0.50;;
27686;SDS011;15093;57.206;-2.184;2022-08-03T16:58:06;0.45;;;0.45;;
27686;SDS011;15093;57.206;-2.184;2022-08-03T17:00:43;0.80;;;0.50;;
27686;SDS011;15093;57.206;-2.184;2022-08-03T17:03:21;0.63;;;0.40;;
27686;SDS011;15093;57.206;-2.184;2022-08-03T17:05:56;2.70;;;0.57;;